sensor_id;sensor_type;location;lat;lon;timestamp;temperature;humidity
20911;DHT22;10615;42.702;23.314;2023-05-01T00:00:35;12.80;84.90
20911;DHT22;10615;42.702;23.314;2023-05-01T00:01:36;12.80;84.80
20911;DHT22;10615;42.702;23.314;2023-05-01T00:02:37;12.80;84.80
20911;DHT22;10615;42.702;23.314;2023-05-01T00:03:38;12.80;84.80
20911;DHT22;10615;42.702;23.314;2023-05-01T00:04:38;12.80;84.90
20911;DHT22;10615;42.702;23.314;2023-05-01T00:05:39;12.70;85.10
20911;DHT22;10615;42.702;23.314;2023-05-01T00:06:40;12.70;85.30
20911;DHT22;10615;42.702;23.314;2023-05-01T00:07:40;12.70;85.50
20911;DHT22;10615;42.702;23.314;2023-05-01T00:08:41;12.70;85.70
20911;DHT22;10615;42.702;23.314;2023-05-01T00:09:42;12.70;85.80
20911;DHT22;10615;42.702;23.314;2023-05-01T00:10:42;12.60;85.90
20911;DHT22;10615;42.702;23.314;2023-05-01T00:11:43;12.60;86.10
20911;DHT22;10615;42.702;23.314;2023-05-01T00:12:43;12.60;86.30
20911;DHT22;10615;42.702;23.314;2023-05-01T00:13:44;12.60;86.50
20911;DHT22;10615;42.702;23.314;2023-05-01T00:14:45;12.60;86.60
20911;DHT22;10615;42.702;23.314;2023-05-01T00:15:46;12.60;86.70
20911;DHT22;10615;42.702;23.314;2023-05-01T00:16:47;12.60;86.90
20911;DHT22;10615;42.702;23.314;2023-05-01T00:17:47;12.60;87.00
20911;DHT22;10615;42.702;23.314;2023-05-01T00:18:48;12.50;87.10
20911;DHT22;10615;42.702;23.314;2023-05-01T00:19:52;12.50;87.20
20911;DHT22;10615;42.702;23.314;2023-05-01T00:20:53;12.50;87.50
20911;DHT22;10615;42.702;23.314;2023-05-01T00:21:53;12.50;87.60
20911;DHT22;10615;42.702;23.314;2023-05-01T00:22:54;12.50;87.70
20911;DHT22;10615;42.702;23.314;2023-05-01T00:23:55;12.50;87.80
20911;DHT22;10615;42.702;23.314;2023-05-01T00:24:55;12.50;88.00
20911;DHT22;10615;42.702;23.314;2023-05-01T00:25:56;12.50;88.10
20911;DHT22;10615;42.702;23.314;2023-05-01T00:26:57;12.50;88.30
20911;DHT22;10615;42.702;23.314;2023-05-01T00:27:58;12.50;88.50
20911;DHT22;10615;42.702;23.314;2023-05-01T00:28:59;12.40;88.70
20911;DHT22;10615;42.702;23.314;2023-05-01T00:29:59;12.40;88.90
20911;DHT22;10615;42.702;23.314;2023-05-01T00:31:01;12.40;89.00
20911;DHT22;10615;42.702;23.314;2023-05-01T00:32:02;12.40;89.10
20911;DHT22;10615;42.702;23.314;2023-05-01T00:33:04;12.40;89.40
20911;DHT22;10615;42.702;23.314;2023-05-01T00:34:05;12.40;89.50
20911;DHT22;10615;42.702;23.314;2023-05-01T00:35:06;12.40;89.70
20911;DHT22;10615;42.702;23.314;2023-05-01T00:36:07;12.30;90.00
20911;DHT22;10615;42.702;23.314;2023-05-01T00:37:08;12.30;90.10
20911;DHT22;10615;42.702;23.314;2023-05-01T00:38:09;12.30;90.20
20911;DHT22;10615;42.702;23.314;2023-05-01T00:39:09;12.30;90.30
20911;DHT22;10615;42.702;23.314;2023-05-01T00:40:11;12.30;90.40
20911;DHT22;10615;42.702;23.314;2023-05-01T00:41:11;12.30;90.40
20911;DHT22;10615;42.702;23.314;2023-05-01T00:42:12;12.20;90.50
20911;DHT22;10615;42.702;23.314;2023-05-01T00:43:12;12.20;90.70
20911;DHT22;10615;42.702;23.314;2023-05-01T00:44:13;12.20;90.80
20911;DHT22;10615;42.702;23.314;2023-05-01T00:45:14;12.20;90.90
20911;DHT22;10615;42.702;23.314;2023-05-01T00:46:15;12.20;91.10
20911;DHT22;10615;42.702;23.314;2023-05-01T00:47:16;12.20;91.20
20911;DHT22;10615;42.702;23.314;2023-05-01T00:48:17;12.20;91.30
20911;DHT22;10615;42.702;23.314;2023-05-01T00:49:17;12.10;91.40
20911;DHT22;10615;42.702;23.314;2023-05-01T00:50:18;12.10;91.50
20911;DHT22;10615;42.702;23.314;2023-05-01T00:51:20;12.10;91.60
20911;DHT22;10615;42.702;23.314;2023-05-01T00:52:23;12.10;91.60
20911;DHT22;10615;42.702;23.314;2023-05-01T00:53:24;12.10;91.80
20911;DHT22;10615;42.702;23.314;2023-05-01T00:54:25;12.10;91.90
20911;DHT22;10615;42.702;23.314;2023-05-01T00:55:30;12.10;92.00
20911;DHT22;10615;42.702;23.314;2023-05-01T00:56:32;12.10;92.20
20911;DHT22;10615;42.702;23.314;2023-05-01T00:57:33;12.10;92.30
20911;DHT22;10615;42.702;23.314;2023-05-01T00:58:34;12.10;92.40
20911;DHT22;10615;42.702;23.314;2023-05-01T00:59:34;12.00;92.50
20911;DHT22;10615;42.702;23.314;2023-05-01T01:00:35;12.00;93.00
20911;DHT22;10615;42.702;23.314;2023-05-01T01:01:36;12.00;92.80
20911;DHT22;10615;42.702;23.314;2023-05-01T01:02:37;12.00;92.90
20911;DHT22;10615;42.702;23.314;2023-05-01T01:03:38;12.00;93.00
20911;DHT22;10615;42.702;23.314;2023-05-01T01:04:41;12.00;93.20
20911;DHT22;10615;42.702;23.314;2023-05-01T01:05:48;12.00;93.20
20911;DHT22;10615;42.702;23.314;2023-05-01T01:06:59;12.00;93.30
20911;DHT22;10615;42.702;23.314;2023-05-01T01:08:23;11.90;93.40
20911;DHT22;10615;42.702;23.314;2023-05-01T01:09:46;11.90;93.60
20911;DHT22;10615;42.702;23.314;2023-05-01T01:11:03;11.90;93.70
20911;DHT22;10615;42.702;23.314;2023-05-01T01:13:30;11.90;93.80
20911;DHT22;10615;42.702;23.314;2023-05-01T01:14:41;11.90;93.90
20911;DHT22;10615;42.702;23.314;2023-05-01T01:16:01;11.80;94.00
20911;DHT22;10615;42.702;23.314;2023-05-01T01:17:18;11.80;94.20
20911;DHT22;10615;42.702;23.314;2023-05-01T01:21:00;11.80;94.60
20911;DHT22;10615;42.702;23.314;2023-05-01T01:22:19;11.80;94.70
20911;DHT22;10615;42.702;23.314;2023-05-01T01:31:16;11.80;94.90
20911;DHT22;10615;42.702;23.314;2023-05-01T01:32:37;11.80;95.10
20911;DHT22;10615;42.702;23.314;2023-05-01T01:33:50;11.70;95.20
20911;DHT22;10615;42.702;23.314;2023-05-01T01:34:57;11.70;95.40
20911;DHT22;10615;42.702;23.314;2023-05-01T01:36:05;11.70;95.50
20911;DHT22;10615;42.702;23.314;2023-05-01T01:37:11;11.70;95.70
20911;DHT22;10615;42.702;23.314;2023-05-01T01:38:16;11.70;95.80
20911;DHT22;10615;42.702;23.314;2023-05-01T01:40:43;11.60;96.20
20911;DHT22;10615;42.702;23.314;2023-05-01T01:41:50;11.60;96.40
20911;DHT22;10615;42.702;23.314;2023-05-01T01:42:58;11.60;96.50
20911;DHT22;10615;42.702;23.314;2023-05-01T01:45:13;11.60;96.70
20911;DHT22;10615;42.702;23.314;2023-05-01T01:46:14;11.60;96.70
20911;DHT22;10615;42.702;23.314;2023-05-01T01:47:18;11.60;96.90
20911;DHT22;10615;42.702;23.314;2023-05-01T01:48:25;11.60;97.00
20911;DHT22;10615;42.702;23.314;2023-05-01T01:49:30;11.50;97.00
20911;DHT22;10615;42.702;23.314;2023-05-01T01:50:32;11.50;97.10
20911;DHT22;10615;42.702;23.314;2023-05-01T01:51:37;11.50;97.20
20911;DHT22;10615;42.702;23.314;2023-05-01T01:52:39;11.50;97.30
20911;DHT22;10615;42.702;23.314;2023-05-01T01:53:45;11.50;97.40
20911;DHT22;10615;42.702;23.314;2023-05-01T01:54:54;11.50;97.50
20911;DHT22;10615;42.702;23.314;2023-05-01T01:55:58;11.50;97.60
20911;DHT22;10615;42.702;23.314;2023-05-01T01:57:02;11.50;97.60
20911;DHT22;10615;42.702;23.314;2023-05-01T01:58:05;11.50;97.60
20911;DHT22;10615;42.702;23.314;2023-05-01T01:59:09;11.50;97.70
20911;DHT22;10615;42.702;23.314;2023-05-01T02:00:11;11.50;97.70
20911;DHT22;10615;42.702;23.314;2023-05-01T02:01:14;11.50;97.80
20911;DHT22;10615;42.702;23.314;2023-05-01T02:02:18;11.50;97.90
20911;DHT22;10615;42.702;23.314;2023-05-01T02:03:20;11.40;98.00
20911;DHT22;10615;42.702;23.314;2023-05-01T02:04:22;11.40;98.10
20911;DHT22;10615;42.702;23.314;2023-05-01T02:05:24;11.40;98.30
20911;DHT22;10615;42.702;23.314;2023-05-01T02:06:26;11.40;98.50
20911;DHT22;10615;42.702;23.314;2023-05-01T02:07:28;11.40;98.50
20911;DHT22;10615;42.702;23.314;2023-05-01T02:08:30;11.40;98.50
20911;DHT22;10615;42.702;23.314;2023-05-01T02:09:33;11.40;98.60
20911;DHT22;10615;42.702;23.314;2023-05-01T02:10:35;11.40;98.60
20911;DHT22;10615;42.702;23.314;2023-05-01T02:11:37;11.40;98.60
20911;DHT22;10615;42.702;23.314;2023-05-01T02:12:40;11.40;98.60
20911;DHT22;10615;42.702;23.314;2023-05-01T02:13:42;11.40;98.70
20911;DHT22;10615;42.702;23.314;2023-05-01T02:14:44;11.40;98.70
20911;DHT22;10615;42.702;23.314;2023-05-01T02:15:46;11.40;98.80
20911;DHT22;10615;42.702;23.314;2023-05-01T02:16:49;11.40;98.80
20911;DHT22;10615;42.702;23.314;2023-05-01T02:17:51;11.40;98.80
20911;DHT22;10615;42.702;23.314;2023-05-01T02:18:53;11.30;98.90
20911;DHT22;10615;42.702;23.314;2023-05-01T02:19:56;11.40;99.00
20911;DHT22;10615;42.702;23.314;2023-05-01T02:20:58;11.40;99.00
20911;DHT22;10615;42.702;23.314;2023-05-01T02:22:01;11.30;99.00
20911;DHT22;10615;42.702;23.314;2023-05-01T02:23:04;11.30;99.10
20911;DHT22;10615;42.702;23.314;2023-05-01T02:24:08;11.30;99.20
20911;DHT22;10615;42.702;23.314;2023-05-01T02:25:11;11.20;99.20
20911;DHT22;10615;42.702;23.314;2023-05-01T02:26:14;11.20;99.30
20911;DHT22;10615;42.702;23.314;2023-05-01T02:27:22;11.20;99.50
20911;DHT22;10615;42.702;23.314;2023-05-01T02:28:24;11.20;99.50
20911;DHT22;10615;42.702;23.314;2023-05-01T02:29:26;11.20;99.60
20911;DHT22;10615;42.702;23.314;2023-05-01T02:30:27;11.10;99.80
20911;DHT22;10615;42.702;23.314;2023-05-01T02:31:28;11.10;99.90
20911;DHT22;10615;42.702;23.314;2023-05-01T02:32:29;11.10;99.90
20911;DHT22;10615;42.702;23.314;2023-05-01T02:33:31;11.10;99.90
20911;DHT22;10615;42.702;23.314;2023-05-01T02:34:34;11.10;99.90
20911;DHT22;10615;42.702;23.314;2023-05-01T02:35:39;11.10;99.90
20911;DHT22;10615;42.702;23.314;2023-05-01T02:36:41;11.10;99.90
20911;DHT22;10615;42.702;23.314;2023-05-01T02:37:42;11.00;99.90
20911;DHT22;10615;42.702;23.314;2023-05-01T02:38:43;11.00;99.90
20911;DHT22;10615;42.702;23.314;2023-05-01T02:39:46;10.90;99.90
20911;DHT22;10615;42.702;23.314;2023-05-01T02:40:51;10.90;99.90
20911;DHT22;10615;42.702;23.314;2023-05-01T02:41:52;10.90;99.90
20911;DHT22;10615;42.702;23.314;2023-05-01T02:42:54;10.90;99.90
20911;DHT22;10615;42.702;23.314;2023-05-01T02:44:01;10.80;99.90
20911;DHT22;10615;42.702;23.314;2023-05-01T02:45:06;10.80;99.90
20911;DHT22;10615;42.702;23.314;2023-05-01T02:46:09;10.80;99.90
20911;DHT22;10615;42.702;23.314;2023-05-01T02:47:14;10.80;99.90
20911;DHT22;10615;42.702;23.314;2023-05-01T02:48:21;10.70;99.90
20911;DHT22;10615;42.702;23.314;2023-05-01T02:49:23;10.70;99.90
20911;DHT22;10615;42.702;23.314;2023-05-01T02:50:23;10.70;99.90
20911;DHT22;10615;42.702;23.314;2023-05-01T02:51:26;10.70;99.90
20911;DHT22;10615;42.702;23.314;2023-05-01T02:52:28;10.60;99.90
20911;DHT22;10615;42.702;23.314;2023-05-01T02:53:29;10.60;99.90
20911;DHT22;10615;42.702;23.314;2023-05-01T02:54:31;10.60;99.90
20911;DHT22;10615;42.702;23.314;2023-05-01T02:55:31;10.60;99.90
20911;DHT22;10615;42.702;23.314;2023-05-01T02:56:32;10.60;99.90
20911;DHT22;10615;42.702;23.314;2023-05-01T02:57:33;10.60;99.90
20911;DHT22;10615;42.702;23.314;2023-05-01T02:58:34;10.60;99.90
20911;DHT22;10615;42.702;23.314;2023-05-01T02:59:35;10.60;99.90
20911;DHT22;10615;42.702;23.314;2023-05-01T03:00:35;10.60;99.90
20911;DHT22;10615;42.702;23.314;2023-05-01T03:01:36;10.60;99.90
20911;DHT22;10615;42.702;23.314;2023-05-01T03:02:37;10.60;99.90
20911;DHT22;10615;42.702;23.314;2023-05-01T03:03:38;10.60;99.90
20911;DHT22;10615;42.702;23.314;2023-05-01T03:04:38;10.60;99.90
20911;DHT22;10615;42.702;23.314;2023-05-01T03:05:40;10.60;99.90
20911;DHT22;10615;42.702;23.314;2023-05-01T03:06:41;10.60;99.90
20911;DHT22;10615;42.702;23.314;2023-05-01T03:07:43;10.60;99.90
20911;DHT22;10615;42.702;23.314;2023-05-01T03:08:44;10.60;99.90
20911;DHT22;10615;42.702;23.314;2023-05-01T03:09:46;10.60;99.90
20911;DHT22;10615;42.702;23.314;2023-05-01T03:10:47;10.60;99.90
20911;DHT22;10615;42.702;23.314;2023-05-01T03:11:48;10.60;99.90
20911;DHT22;10615;42.702;23.314;2023-05-01T03:12:48;10.50;99.90
20911;DHT22;10615;42.702;23.314;2023-05-01T03:13:49;10.50;99.90
20911;DHT22;10615;42.702;23.314;2023-05-01T03:14:50;10.50;99.90
20911;DHT22;10615;42.702;23.314;2023-05-01T03:15:51;10.50;99.90
20911;DHT22;10615;42.702;23.314;2023-05-01T03:16:52;10.50;99.90
20911;DHT22;10615;42.702;23.314;2023-05-01T03:17:53;10.50;99.90
20911;DHT22;10615;42.702;23.314;2023-05-01T03:18:53;10.40;99.90
20911;DHT22;10615;42.702;23.314;2023-05-01T03:19:55;10.40;99.90
20911;DHT22;10615;42.702;23.314;2023-05-01T03:20:56;10.40;99.90
20911;DHT22;10615;42.702;23.314;2023-05-01T03:21:56;10.40;99.90
20911;DHT22;10615;42.702;23.314;2023-05-01T03:22:57;10.40;99.90
20911;DHT22;10615;42.702;23.314;2023-05-01T03:23:59;10.40;99.90
20911;DHT22;10615;42.702;23.314;2023-05-01T03:24:59;10.40;99.90
20911;DHT22;10615;42.702;23.314;2023-05-01T03:26:00;10.30;99.90
20911;DHT22;10615;42.702;23.314;2023-05-01T03:27:01;10.30;99.90
20911;DHT22;10615;42.702;23.314;2023-05-01T03:28:02;10.30;99.90
20911;DHT22;10615;42.702;23.314;2023-05-01T03:29:03;10.30;99.90
20911;DHT22;10615;42.702;23.314;2023-05-01T03:30:04;10.20;99.90
20911;DHT22;10615;42.702;23.314;2023-05-01T03:31:05;10.20;99.90
20911;DHT22;10615;42.702;23.314;2023-05-01T03:32:06;10.10;99.90
20911;DHT22;10615;42.702;23.314;2023-05-01T03:33:07;10.00;99.90
20911;DHT22;10615;42.702;23.314;2023-05-01T03:34:07;10.00;99.90
20911;DHT22;10615;42.702;23.314;2023-05-01T03:35:08;9.90;99.90
20911;DHT22;10615;42.702;23.314;2023-05-01T03:36:09;9.90;99.90
20911;DHT22;10615;42.702;23.314;2023-05-01T03:37:12;10.00;99.90
20911;DHT22;10615;42.702;23.314;2023-05-01T03:38:14;9.90;99.90
20911;DHT22;10615;42.702;23.314;2023-05-01T03:39:15;9.90;99.90
20911;DHT22;10615;42.702;23.314;2023-05-01T03:40:16;9.90;99.90
20911;DHT22;10615;42.702;23.314;2023-05-01T03:41:16;9.90;99.90
20911;DHT22;10615;42.702;23.314;2023-05-01T03:42:17;9.90;99.90
20911;DHT22;10615;42.702;23.314;2023-05-01T03:43:18;9.90;99.90
20911;DHT22;10615;42.702;23.314;2023-05-01T03:44:19;9.90;99.90
20911;DHT22;10615;42.702;23.314;2023-05-01T03:45:19;9.90;99.90
20911;DHT22;10615;42.702;23.314;2023-05-01T03:46:20;10.00;99.90
20911;DHT22;10615;42.702;23.314;2023-05-01T03:47:21;10.00;99.90
20911;DHT22;10615;42.702;23.314;2023-05-01T03:48:21;10.00;99.90
20911;DHT22;10615;42.702;23.314;2023-05-01T03:59:51;10.00;99.90
20911;DHT22;10615;42.702;23.314;2023-05-01T04:00:54;12.20;99.90
20911;DHT22;10615;42.702;23.314;2023-05-01T04:01:57;12.50;99.90
20911;DHT22;10615;42.702;23.314;2023-05-01T04:02:58;12.80;99.90
20911;DHT22;10615;42.702;23.314;2023-05-01T04:03:59;13.10;99.90
20911;DHT22;10615;42.702;23.314;2023-05-01T04:04:59;13.40;99.10
20911;DHT22;10615;42.702;23.314;2023-05-01T04:06:00;13.70;97.50
20911;DHT22;10615;42.702;23.314;2023-05-01T04:07:01;14.00;95.90
20911;DHT22;10615;42.702;23.314;2023-05-01T04:08:02;14.40;94.40
20911;DHT22;10615;42.702;23.314;2023-05-01T04:09:03;14.80;92.90
20911;DHT22;10615;42.702;23.314;2023-05-01T04:10:04;15.10;91.50
20911;DHT22;10615;42.702;23.314;2023-05-01T04:11:06;15.50;90.00
20911;DHT22;10615;42.702;23.314;2023-05-01T04:12:07;15.90;87.30
20911;DHT22;10615;42.702;23.314;2023-05-01T04:13:08;16.20;84.80
20911;DHT22;10615;42.702;23.314;2023-05-01T04:14:08;16.60;82.40
20911;DHT22;10615;42.702;23.314;2023-05-01T04:15:09;16.90;80.10
20911;DHT22;10615;42.702;23.314;2023-05-01T04:16:10;17.20;78.10
20911;DHT22;10615;42.702;23.314;2023-05-01T04:17:11;17.60;76.00
20911;DHT22;10615;42.702;23.314;2023-05-01T04:18:12;18.00;74.10
20911;DHT22;10615;42.702;23.314;2023-05-01T04:19:13;18.30;72.50
20911;DHT22;10615;42.702;23.314;2023-05-01T04:20:14;18.60;70.70
20911;DHT22;10615;42.702;23.314;2023-05-01T04:21:16;18.90;69.20
20911;DHT22;10615;42.702;23.314;2023-05-01T04:22:18;19.30;67.90
20911;DHT22;10615;42.702;23.314;2023-05-01T04:23:19;19.60;66.30
20911;DHT22;10615;42.702;23.314;2023-05-01T04:24:19;19.90;64.90
20911;DHT22;10615;42.702;23.314;2023-05-01T04:25:20;20.20;63.60
20911;DHT22;10615;42.702;23.314;2023-05-01T04:26:21;20.50;62.30
20911;DHT22;10615;42.702;23.314;2023-05-01T04:27:22;20.80;61.20
20911;DHT22;10615;42.702;23.314;2023-05-01T04:28:22;21.10;59.90
20911;DHT22;10615;42.702;23.314;2023-05-01T04:29:23;21.20;58.80
20911;DHT22;10615;42.702;23.314;2023-05-01T04:30:24;21.40;58.10
20911;DHT22;10615;42.702;23.314;2023-05-01T04:31:25;21.70;57.60
20911;DHT22;10615;42.702;23.314;2023-05-01T04:32:25;22.00;56.80
20911;DHT22;10615;42.702;23.314;2023-05-01T04:33:26;22.30;56.00
20911;DHT22;10615;42.702;23.314;2023-05-01T04:34:27;22.70;55.20
20911;DHT22;10615;42.702;23.314;2023-05-01T04:35:28;22.90;54.10
20911;DHT22;10615;42.702;23.314;2023-05-01T04:36:29;23.10;53.40
20911;DHT22;10615;42.702;23.314;2023-05-01T04:37:32;23.30;52.60
20911;DHT22;10615;42.702;23.314;2023-05-01T04:38:34;23.60;51.90
20911;DHT22;10615;42.702;23.314;2023-05-01T04:39:36;23.90;51.30
20911;DHT22;10615;42.702;23.314;2023-05-01T04:40:37;24.10;50.80
20911;DHT22;10615;42.702;23.314;2023-05-01T04:41:38;24.30;50.20
20911;DHT22;10615;42.702;23.314;2023-05-01T04:42:39;24.50;49.60
20911;DHT22;10615;42.702;23.314;2023-05-01T04:43:40;24.70;49.00
20911;DHT22;10615;42.702;23.314;2023-05-01T04:44:41;24.90;48.50
20911;DHT22;10615;42.702;23.314;2023-05-01T04:45:41;25.30;48.00
20911;DHT22;10615;42.702;23.314;2023-05-01T04:46:42;25.60;47.40
20911;DHT22;10615;42.702;23.314;2023-05-01T04:47:43;25.90;46.80
20911;DHT22;10615;42.702;23.314;2023-05-01T04:48:43;26.10;46.20
20911;DHT22;10615;42.702;23.314;2023-05-01T04:49:44;26.40;45.60
20911;DHT22;10615;42.702;23.314;2023-05-01T04:50:45;26.80;45.00
20911;DHT22;10615;42.702;23.314;2023-05-01T04:51:46;27.00;44.30
20911;DHT22;10615;42.702;23.314;2023-05-01T04:52:46;27.40;43.80
20911;DHT22;10615;42.702;23.314;2023-05-01T04:53:47;27.90;43.10
20911;DHT22;10615;42.702;23.314;2023-05-01T04:54:48;28.40;42.50
20911;DHT22;10615;42.702;23.314;2023-05-01T04:55:49;28.80;41.70
20911;DHT22;10615;42.702;23.314;2023-05-01T04:56:50;29.30;41.00
20911;DHT22;10615;42.702;23.314;2023-05-01T04:57:52;29.70;40.50
20911;DHT22;10615;42.702;23.314;2023-05-01T04:58:53;30.30;39.80
20911;DHT22;10615;42.702;23.314;2023-05-01T05:00:54;31.10;37.50
20911;DHT22;10615;42.702;23.314;2023-05-01T05:01:55;31.40;37.30
20911;DHT22;10615;42.702;23.314;2023-05-01T05:02:56;31.80;36.90
20911;DHT22;10615;42.702;23.314;2023-05-01T05:03:57;32.10;36.30
20911;DHT22;10615;42.702;23.314;2023-05-01T05:04:57;32.50;36.00
20911;DHT22;10615;42.702;23.314;2023-05-01T05:05:58;32.90;35.30
20911;DHT22;10615;42.702;23.314;2023-05-01T05:06:59;33.10;34.50
20911;DHT22;10615;42.702;23.314;2023-05-01T05:07:59;33.40;34.00
20911;DHT22;10615;42.702;23.314;2023-05-01T05:09:00;33.60;33.40
20911;DHT22;10615;42.702;23.314;2023-05-01T05:10:01;33.80;33.00
20911;DHT22;10615;42.702;23.314;2023-05-01T05:11:01;34.00;32.60
20911;DHT22;10615;42.702;23.314;2023-05-01T05:12:02;34.00;31.90
20911;DHT22;10615;42.702;23.314;2023-05-01T05:13:04;34.10;31.70
20911;DHT22;10615;42.702;23.314;2023-05-01T05:14:04;34.20;31.50
20911;DHT22;10615;42.702;23.314;2023-05-01T05:15:06;34.20;31.20
20911;DHT22;10615;42.702;23.314;2023-05-01T05:16:07;34.20;31.00
20911;DHT22;10615;42.702;23.314;2023-05-01T05:17:07;34.20;30.90
20911;DHT22;10615;42.702;23.314;2023-05-01T05:18:09;34.30;30.80
20911;DHT22;10615;42.702;23.314;2023-05-01T05:19:09;34.10;30.50
20911;DHT22;10615;42.702;23.314;2023-05-01T05:20:10;33.80;30.60
20911;DHT22;10615;42.702;23.314;2023-05-01T05:21:11;33.50;30.80
20911;DHT22;10615;42.702;23.314;2023-05-01T05:22:11;33.10;31.10
20911;DHT22;10615;42.702;23.314;2023-05-01T05:23:12;32.70;31.40
20911;DHT22;10615;42.702;23.314;2023-05-01T05:24:13;32.20;32.00
20911;DHT22;10615;42.702;23.314;2023-05-01T05:25:14;31.70;32.50
20911;DHT22;10615;42.702;23.314;2023-05-01T05:26:15;31.30;33.00
20911;DHT22;10615;42.702;23.314;2023-05-01T05:27:16;31.00;33.80
20911;DHT22;10615;42.702;23.314;2023-05-01T05:28:16;30.70;34.30
20911;DHT22;10615;42.702;23.314;2023-05-01T05:29:17;30.60;34.80
20911;DHT22;10615;42.702;23.314;2023-05-01T05:30:18;30.60;35.10
20911;DHT22;10615;42.702;23.314;2023-05-01T05:31:19;30.90;35.30
20911;DHT22;10615;42.702;23.314;2023-05-01T05:32:20;31.30;34.80
20911;DHT22;10615;42.702;23.314;2023-05-01T05:33:20;31.80;34.30
20911;DHT22;10615;42.702;23.314;2023-05-01T05:34:22;32.40;33.60
20911;DHT22;10615;42.702;23.314;2023-05-01T05:35:22;33.10;32.80
20911;DHT22;10615;42.702;23.314;2023-05-01T05:36:23;33.70;32.00
20911;DHT22;10615;42.702;23.314;2023-05-01T05:37:24;34.50;31.40
20911;DHT22;10615;42.702;23.314;2023-05-01T05:38:25;35.20;30.40
20911;DHT22;10615;42.702;23.314;2023-05-01T05:39:26;35.70;29.80
20911;DHT22;10615;42.702;23.314;2023-05-01T05:40:26;36.10;29.20
20911;DHT22;10615;42.702;23.314;2023-05-01T05:41:27;36.60;28.80
20911;DHT22;10615;42.702;23.314;2023-05-01T05:42:28;37.00;28.40
20911;DHT22;10615;42.702;23.314;2023-05-01T05:43:28;37.60;28.30
20911;DHT22;10615;42.702;23.314;2023-05-01T05:44:29;38.20;27.70
20911;DHT22;10615;42.702;23.314;2023-05-01T05:45:33;38.70;27.20
20911;DHT22;10615;42.702;23.314;2023-05-01T05:46:34;39.00;26.70
20911;DHT22;10615;42.702;23.314;2023-05-01T05:47:34;39.30;26.50
20911;DHT22;10615;42.702;23.314;2023-05-01T05:48:35;39.80;26.20
20911;DHT22;10615;42.702;23.314;2023-05-01T05:49:36;40.10;25.90
20911;DHT22;10615;42.702;23.314;2023-05-01T05:50:36;40.40;25.50
20911;DHT22;10615;42.702;23.314;2023-05-01T05:51:37;40.70;25.20
20911;DHT22;10615;42.702;23.314;2023-05-01T05:52:37;41.00;25.00
20911;DHT22;10615;42.702;23.314;2023-05-01T05:53:38;41.30;24.70
20911;DHT22;10615;42.702;23.314;2023-05-01T05:54:39;41.60;24.50
20911;DHT22;10615;42.702;23.314;2023-05-01T05:55:40;41.80;24.10
20911;DHT22;10615;42.702;23.314;2023-05-01T05:56:42;42.00;23.90
20911;DHT22;10615;42.702;23.314;2023-05-01T05:57:43;42.30;23.70
20911;DHT22;10615;42.702;23.314;2023-05-01T05:58:44;42.40;23.40
20911;DHT22;10615;42.702;23.314;2023-05-01T05:59:45;42.50;23.10
20911;DHT22;10615;42.702;23.314;2023-05-01T06:00:46;42.50;23.00
20911;DHT22;10615;42.702;23.314;2023-05-01T06:01:47;42.60;22.90
20911;DHT22;10615;42.702;23.314;2023-05-01T06:02:48;42.60;23.00
20911;DHT22;10615;42.702;23.314;2023-05-01T06:03:49;42.70;22.90
20911;DHT22;10615;42.702;23.314;2023-05-01T06:04:50;43.00;22.70
20911;DHT22;10615;42.702;23.314;2023-05-01T06:05:50;43.10;22.50
20911;DHT22;10615;42.702;23.314;2023-05-01T06:06:51;43.10;22.40
20911;DHT22;10615;42.702;23.314;2023-05-01T06:07:52;43.20;22.40
20911;DHT22;10615;42.702;23.314;2023-05-01T06:08:54;43.20;22.40
20911;DHT22;10615;42.702;23.314;2023-05-01T06:09:54;43.40;22.40
20911;DHT22;10615;42.702;23.314;2023-05-01T06:11:00;43.50;22.30
20911;DHT22;10615;42.702;23.314;2023-05-01T06:12:01;43.70;22.30
20911;DHT22;10615;42.702;23.314;2023-05-01T06:13:05;43.90;22.00
20911;DHT22;10615;42.702;23.314;2023-05-01T06:14:08;44.00;21.80
20911;DHT22;10615;42.702;23.314;2023-05-01T06:15:09;43.90;21.60
20911;DHT22;10615;42.702;23.314;2023-05-01T06:17:29;44.10;21.70
20911;DHT22;10615;42.702;23.314;2023-05-01T06:18:30;44.10;21.50
20911;DHT22;10615;42.702;23.314;2023-05-01T06:19:31;44.20;21.50
20911;DHT22;10615;42.702;23.314;2023-05-01T06:20:32;44.40;21.50
20911;DHT22;10615;42.702;23.314;2023-05-01T06:21:32;44.50;21.30
20911;DHT22;10615;42.702;23.314;2023-05-01T06:22:33;44.90;21.40
20911;DHT22;10615;42.702;23.314;2023-05-01T06:23:34;45.30;21.10
20911;DHT22;10615;42.702;23.314;2023-05-01T06:24:35;45.10;20.70
20911;DHT22;10615;42.702;23.314;2023-05-01T06:25:36;45.10;20.80
20911;DHT22;10615;42.702;23.314;2023-05-01T06:26:37;45.10;20.80
20911;DHT22;10615;42.702;23.314;2023-05-01T06:27:38;45.20;20.80
20911;DHT22;10615;42.702;23.314;2023-05-01T06:28:38;45.40;20.70
20911;DHT22;10615;42.702;23.314;2023-05-01T06:29:39;45.40;20.60
20911;DHT22;10615;42.702;23.314;2023-05-01T06:30:40;45.40;20.50
20911;DHT22;10615;42.702;23.314;2023-05-01T06:31:40;45.50;20.40
20911;DHT22;10615;42.702;23.314;2023-05-01T06:32:41;45.40;20.40
20911;DHT22;10615;42.702;23.314;2023-05-01T06:33:43;45.40;20.50
20911;DHT22;10615;42.702;23.314;2023-05-01T06:34:43;45.50;20.40
20911;DHT22;10615;42.702;23.314;2023-05-01T06:35:44;45.70;20.50
20911;DHT22;10615;42.702;23.314;2023-05-01T06:36:45;45.90;20.30
20911;DHT22;10615;42.702;23.314;2023-05-01T06:38:47;46.00;19.60
20911;DHT22;10615;42.702;23.314;2023-05-01T06:39:48;46.10;20.10
20911;DHT22;10615;42.702;23.314;2023-05-01T06:40:49;46.10;19.90
20911;DHT22;10615;42.702;23.314;2023-05-01T06:41:50;46.00;19.90
20911;DHT22;10615;42.702;23.314;2023-05-01T06:42:50;46.00;19.90
20911;DHT22;10615;42.702;23.314;2023-05-01T06:43:51;46.10;19.90
20911;DHT22;10615;42.702;23.314;2023-05-01T06:44:52;46.20;19.90
20911;DHT22;10615;42.702;23.314;2023-05-01T06:45:52;46.40;20.00
20911;DHT22;10615;42.702;23.314;2023-05-01T06:46:53;46.70;19.90
20911;DHT22;10615;42.702;23.314;2023-05-01T06:47:56;47.00;19.70
20911;DHT22;10615;42.702;23.314;2023-05-01T06:48:56;47.20;19.60
20911;DHT22;10615;42.702;23.314;2023-05-01T06:49:57;47.30;19.40
20911;DHT22;10615;42.702;23.314;2023-05-01T06:50:58;47.30;19.30
20911;DHT22;10615;42.702;23.314;2023-05-01T06:51:59;47.40;19.30
20911;DHT22;10615;42.702;23.314;2023-05-01T06:52:59;47.60;19.30
20911;DHT22;10615;42.702;23.314;2023-05-01T06:54:02;47.70;19.20